sensor_id;sensor_type;location;lat;lon;timestamp;temperature;humidity
13806;DHT22;6974;53.606;9.872;2023-02-28T00:01:07;5.70;99.90
13806;DHT22;6974;53.606;9.872;2023-02-28T00:03:36;5.70;99.90
13806;DHT22;6974;53.606;9.872;2023-02-28T00:06:05;5.70;99.90
13806;DHT22;6974;53.606;9.872;2023-02-28T00:08:32;5.70;99.90
13806;DHT22;6974;53.606;9.872;2023-02-28T00:11:01;5.70;99.90
13806;DHT22;6974;53.606;9.872;2023-02-28T00:13:29;5.70;99.90
13806;DHT22;6974;53.606;9.872;2023-02-28T00:16:01;5.60;99.90
13806;DHT22;6974;53.606;9.872;2023-02-28T00:18:29;5.70;99.90
13806;DHT22;6974;53.606;9.872;2023-02-28T00:20:57;5.60;99.90
13806;DHT22;6974;53.606;9.872;2023-02-28T00:23:25;5.60;99.90
13806;DHT22;6974;53.606;9.872;2023-02-28T00:25:52;5.60;99.90
13806;DHT22;6974;53.606;9.872;2023-02-28T00:28:21;5.60;99.90
13806;DHT22;6974;53.606;9.872;2023-02-28T00:30:48;5.60;99.90
13806;DHT22;6974;53.606;9.872;2023-02-28T00:33:16;5.50;99.90
13806;DHT22;6974;53.606;9.872;2023-02-28T00:35:43;5.50;99.90
13806;DHT22;6974;53.606;9.872;2023-02-28T00:38:14;5.50;99.90
13806;DHT22;6974;53.606;9.872;2023-02-28T00:40:41;5.50;99.90
13806;DHT22;6974;53.606;9.872;2023-02-28T00:43:08;5.50;99.90
13806;DHT22;6974;53.606;9.872;2023-02-28T00:45:35;5.50;99.90
13806;DHT22;6974;53.606;9.872;2023-02-28T00:48:03;5.50;99.90
13806;DHT22;6974;53.606;9.872;2023-02-28T00:50:30;5.50;99.90
13806;DHT22;6974;53.606;9.872;2023-02-28T00:52:57;5.40;99.90
13806;DHT22;6974;53.606;9.872;2023-02-28T00:55:26;5.40;99.90
13806;DHT22;6974;53.606;9.872;2023-02-28T00:57:53;5.40;99.90
13806;DHT22;6974;53.606;9.872;2023-02-28T01:00:21;5.30;99.90
13806;DHT22;6974;53.606;9.872;2023-02-28T01:02:48;5.30;99.90
13806;DHT22;6974;53.606;9.872;2023-02-28T01:05:15;5.30;99.90
13806;DHT22;6974;53.606;9.872;2023-02-28T01:07:42;5.30;99.90
13806;DHT22;6974;53.606;9.872;2023-02-28T01:10:10;5.20;99.90
13806;DHT22;6974;53.606;9.872;2023-02-28T01:12:38;5.30;99.90
13806;DHT22;6974;53.606;9.872;2023-02-28T01:15:06;5.30;99.90
13806;DHT22;6974;53.606;9.872;2023-02-28T01:17:33;5.30;99.90
13806;DHT22;6974;53.606;9.872;2023-02-28T01:20:00;5.20;99.90
13806;DHT22;6974;53.606;9.872;2023-02-28T01:22:27;5.20;99.90
13806;DHT22;6974;53.606;9.872;2023-02-28T01:24:54;5.20;99.90
13806;DHT22;6974;53.606;9.872;2023-02-28T01:27:20;5.20;99.90
13806;DHT22;6974;53.606;9.872;2023-02-28T01:29:50;5.20;99.90
13806;DHT22;6974;53.606;9.872;2023-02-28T01:32:17;5.10;99.90
13806;DHT22;6974;53.606;9.872;2023-02-28T01:34:44;5.10;99.90
13806;DHT22;6974;53.606;9.872;2023-02-28T01:37:11;5.00;99.90
13806;DHT22;6974;53.606;9.872;2023-02-28T01:39:38;5.10;99.90
13806;DHT22;6974;53.606;9.872;2023-02-28T01:42:04;5.10;99.90
13806;DHT22;6974;53.606;9.872;2023-02-28T01:45:02;5.10;99.90
13806;DHT22;6974;53.606;9.872;2023-02-28T01:47:32;5.10;99.90
13806;DHT22;6974;53.606;9.872;2023-02-28T01:50:02;5.10;99.90
13806;DHT22;6974;53.606;9.872;2023-02-28T01:52:30;5.10;99.90
13806;DHT22;6974;53.606;9.872;2023-02-28T01:54:59;5.10;99.90
13806;DHT22;6974;53.606;9.872;2023-02-28T01:57:30;5.10;99.90
13806;DHT22;6974;53.606;9.872;2023-02-28T02:00:07;5.20;99.90
13806;DHT22;6974;53.606;9.872;2023-02-28T02:02:36;5.20;99.90
13806;DHT22;6974;53.606;9.872;2023-02-28T02:05:06;5.10;99.90
13806;DHT22;6974;53.606;9.872;2023-02-28T02:07:35;5.10;99.90
13806;DHT22;6974;53.606;9.872;2023-02-28T02:10:06;5.10;99.90
13806;DHT22;6974;53.606;9.872;2023-02-28T02:12:44;5.10;99.90
13806;DHT22;6974;53.606;9.872;2023-02-28T02:15:19;5.10;99.90
13806;DHT22;6974;53.606;9.872;2023-02-28T02:17:51;5.10;99.90
13806;DHT22;6974;53.606;9.872;2023-02-28T02:20:38;5.10;99.90
13806;DHT22;6974;53.606;9.872;2023-02-28T02:23:47;5.10;99.90
13806;DHT22;6974;53.606;9.872;2023-02-28T02:26:39;5.10;99.90
13806;DHT22;6974;53.606;9.872;2023-02-28T02:29:34;5.10;99.90
13806;DHT22;6974;53.606;9.872;2023-02-28T02:32:18;5.10;99.90
13806;DHT22;6974;53.606;9.872;2023-02-28T02:34:55;5.10;99.90
13806;DHT22;6974;53.606;9.872;2023-02-28T02:37:29;5.10;99.90
13806;DHT22;6974;53.606;9.872;2023-02-28T02:40:04;5.10;99.90
13806;DHT22;6974;53.606;9.872;2023-02-28T02:42:40;5.10;99.90
13806;DHT22;6974;53.606;9.872;2023-02-28T02:45:11;5.10;99.90
13806;DHT22;6974;53.606;9.872;2023-02-28T02:47:41;5.00;99.90
13806;DHT22;6974;53.606;9.872;2023-02-28T02:50:14;5.00;99.90
13806;DHT22;6974;53.606;9.872;2023-02-28T02:52:45;5.00;99.90
13806;DHT22;6974;53.606;9.872;2023-02-28T02:55:16;5.00;99.90
13806;DHT22;6974;53.606;9.872;2023-02-28T02:57:46;5.00;99.90
13806;DHT22;6974;53.606;9.872;2023-02-28T03:00:16;5.00;99.90
13806;DHT22;6974;53.606;9.872;2023-02-28T03:02:45;4.90;99.90
13806;DHT22;6974;53.606;9.872;2023-02-28T03:05:20;4.90;99.90
13806;DHT22;6974;53.606;9.872;2023-02-28T03:07:48;4.90;99.90
13806;DHT22;6974;53.606;9.872;2023-02-28T03:10:32;5.00;99.90
13806;DHT22;6974;53.606;9.872;2023-02-28T03:13:13;5.00;99.90
13806;DHT22;6974;53.606;9.872;2023-02-28T03:15:55;4.90;99.90
13806;DHT22;6974;53.606;9.872;2023-02-28T03:18:29;4.90;99.90
13806;DHT22;6974;53.606;9.872;2023-02-28T03:21:04;4.90;99.90
13806;DHT22;6974;53.606;9.872;2023-02-28T03:23:40;4.90;99.90
13806;DHT22;6974;53.606;9.872;2023-02-28T03:26:13;4.90;99.90
13806;DHT22;6974;53.606;9.872;2023-02-28T03:28:52;4.90;99.90
13806;DHT22;6974;53.606;9.872;2023-02-28T03:31:25;4.80;99.90
13806;DHT22;6974;53.606;9.872;2023-02-28T03:33:57;4.70;99.90
13806;DHT22;6974;53.606;9.872;2023-02-28T03:36:29;4.60;99.90
13806;DHT22;6974;53.606;9.872;2023-02-28T03:38:58;4.50;99.90
13806;DHT22;6974;53.606;9.872;2023-02-28T03:41:31;4.60;99.90
13806;DHT22;6974;53.606;9.872;2023-02-28T03:44:03;4.70;99.90
13806;DHT22;6974;53.606;9.872;2023-02-28T03:46:34;4.70;99.90
13806;DHT22;6974;53.606;9.872;2023-02-28T03:49:08;4.50;99.90
13806;DHT22;6974;53.606;9.872;2023-02-28T03:51:40;4.50;99.90
13806;DHT22;6974;53.606;9.872;2023-02-28T03:54:11;4.40;99.90
13806;DHT22;6974;53.606;9.872;2023-02-28T03:56:42;4.40;99.90
13806;DHT22;6974;53.606;9.872;2023-02-28T03:59:14;4.40;99.90
13806;DHT22;6974;53.606;9.872;2023-02-28T04:01:43;4.30;99.90
13806;DHT22;6974;53.606;9.872;2023-02-28T04:04:11;4.40;99.90
13806;DHT22;6974;53.606;9.872;2023-02-28T04:06:40;4.30;99.90
13806;DHT22;6974;53.606;9.872;2023-02-28T04:09:09;4.20;99.90
13806;DHT22;6974;53.606;9.872;2023-02-28T04:11:38;4.10;99.90
13806;DHT22;6974;53.606;9.872;2023-02-28T04:14:06;4.10;99.90
13806;DHT22;6974;53.606;9.872;2023-02-28T04:16:37;4.10;99.90
13806;DHT22;6974;53.606;9.872;2023-02-28T04:19:06;3.90;99.90
13806;DHT22;6974;53.606;9.872;2023-02-28T04:21:34;3.90;99.90
13806;DHT22;6974;53.606;9.872;2023-02-28T04:24:04;3.80;99.90
13806;DHT22;6974;53.606;9.872;2023-02-28T04:26:31;3.80;99.90
13806;DHT22;6974;53.606;9.872;2023-02-28T04:28:58;3.80;99.90
13806;DHT22;6974;53.606;9.872;2023-02-28T04:31:25;3.90;99.90
13806;DHT22;6974;53.606;9.872;2023-02-28T04:33:52;3.90;99.90
13806;DHT22;6974;53.606;9.872;2023-02-28T04:36:19;3.80;99.90
13806;DHT22;6974;53.606;9.872;2023-02-28T04:38:46;3.80;99.90
13806;DHT22;6974;53.606;9.872;2023-02-28T04:41:14;3.80;99.90
13806;DHT22;6974;53.606;9.872;2023-02-28T04:43:41;3.70;99.90
13806;DHT22;6974;53.606;9.872;2023-02-28T04:46:08;3.70;99.90
13806;DHT22;6974;53.606;9.872;2023-02-28T04:48:38;3.60;99.90
13806;DHT22;6974;53.606;9.872;2023-02-28T04:51:07;3.60;99.90
13806;DHT22;6974;53.606;9.872;2023-02-28T04:53:35;3.50;99.90
13806;DHT22;6974;53.606;9.872;2023-02-28T04:56:04;3.50;99.90
13806;DHT22;6974;53.606;9.872;2023-02-28T04:58:33;3.50;99.90
13806;DHT22;6974;53.606;9.872;2023-02-28T05:01:05;3.50;99.90
13806;DHT22;6974;53.606;9.872;2023-02-28T05:03:38;3.50;99.90
13806;DHT22;6974;53.606;9.872;2023-02-28T05:06:06;3.40;99.90
13806;DHT22;6974;53.606;9.872;2023-02-28T05:08:33;3.50;99.90
13806;DHT22;6974;53.606;9.872;2023-02-28T05:11:00;3.40;99.90
13806;DHT22;6974;53.606;9.872;2023-02-28T05:13:27;3.30;99.90
13806;DHT22;6974;53.606;9.872;2023-02-28T05:15:55;3.30;99.90
13806;DHT22;6974;53.606;9.872;2023-02-28T05:18:22;3.30;99.90
13806;DHT22;6974;53.606;9.872;2023-02-28T05:20:49;3.20;99.90
13806;DHT22;6974;53.606;9.872;2023-02-28T05:23:17;3.30;99.90
13806;DHT22;6974;53.606;9.872;2023-02-28T05:25:45;3.30;99.90
13806;DHT22;6974;53.606;9.872;2023-02-28T05:28:12;3.20;99.90
13806;DHT22;6974;53.606;9.872;2023-02-28T05:30:39;3.20;99.90
13806;DHT22;6974;53.606;9.872;2023-02-28T05:33:11;3.10;99.90
13806;DHT22;6974;53.606;9.872;2023-02-28T05:35:38;3.10;99.90
13806;DHT22;6974;53.606;9.872;2023-02-28T05:38:05;3.10;99.90
13806;DHT22;6974;53.606;9.872;2023-02-28T05:40:32;3.00;99.90
13806;DHT22;6974;53.606;9.872;2023-02-28T05:42:59;2.90;99.90
13806;DHT22;6974;53.606;9.872;2023-02-28T05:45:26;2.90;99.90
13806;DHT22;6974;53.606;9.872;2023-02-28T05:47:54;2.90;99.90
13806;DHT22;6974;53.606;9.872;2023-02-28T05:50:22;2.80;99.90
13806;DHT22;6974;53.606;9.872;2023-02-28T05:52:49;2.80;99.90
13806;DHT22;6974;53.606;9.872;2023-02-28T05:55:16;2.80;99.90
13806;DHT22;6974;53.606;9.872;2023-02-28T05:57:43;2.80;99.90
13806;DHT22;6974;53.606;9.872;2023-02-28T06:00:11;2.80;99.90
13806;DHT22;6974;53.606;9.872;2023-02-28T06:02:40;2.80;99.90
13806;DHT22;6974;53.606;9.872;2023-02-28T06:05:13;2.80;99.90
13806;DHT22;6974;53.606;9.872;2023-02-28T06:07:41;2.90;99.90
13806;DHT22;6974;53.606;9.872;2023-02-28T06:10:09;2.90;99.90
13806;DHT22;6974;53.606;9.872;2023-02-28T06:12:37;2.80;99.90
13806;DHT22;6974;53.606;9.872;2023-02-28T06:15:05;2.80;99.90
13806;DHT22;6974;53.606;9.872;2023-02-28T06:17:32;2.80;99.90
13806;DHT22;6974;53.606;9.872;2023-02-28T06:19:58;2.80;99.90
13806;DHT22;6974;53.606;9.872;2023-02-28T06:22:25;2.80;99.90
13806;DHT22;6974;53.606;9.872;2023-02-28T06:24:53;2.70;99.90
13806;DHT22;6974;53.606;9.872;2023-02-28T06:27:22;2.70;99.90
13806;DHT22;6974;53.606;9.872;2023-02-28T06:29:53;2.60;99.90
13806;DHT22;6974;53.606;9.872;2023-02-28T06:32:19;2.60;99.90
13806;DHT22;6974;53.606;9.872;2023-02-28T06:34:46;2.60;99.90
13806;DHT22;6974;53.606;9.872;2023-02-28T06:37:13;2.70;99.90
13806;DHT22;6974;53.606;9.872;2023-02-28T06:39:40;2.70;99.90
13806;DHT22;6974;53.606;9.872;2023-02-28T06:42:09;2.70;99.90
13806;DHT22;6974;53.606;9.872;2023-02-28T06:44:36;2.70;99.90
13806;DHT22;6974;53.606;9.872;2023-02-28T06:47:04;2.60;99.90
13806;DHT22;6974;53.606;9.872;2023-02-28T06:49:33;2.60;99.90
13806;DHT22;6974;53.606;9.872;2023-02-28T06:52:00;2.70;99.90
13806;DHT22;6974;53.606;9.872;2023-02-28T06:54:27;2.70;99.90
13806;DHT22;6974;53.606;9.872;2023-02-28T06:56:54;2.70;99.90
13806;DHT22;6974;53.606;9.872;2023-02-28T06:59:22;2.70;99.90
13806;DHT22;6974;53.606;9.872;2023-02-28T07:01:49;2.60;99.90
13806;DHT22;6974;53.606;9.872;2023-02-28T07:04:16;2.70;99.90
13806;DHT22;6974;53.606;9.872;2023-02-28T07:06:43;2.70;99.90
13806;DHT22;6974;53.606;9.872;2023-02-28T07:09:10;2.80;99.90
13806;DHT22;6974;53.606;9.872;2023-02-28T07:11:38;2.80;99.90
13806;DHT22;6974;53.606;9.872;2023-02-28T07:14:06;2.70;99.90
13806;DHT22;6974;53.606;9.872;2023-02-28T07:16:35;2.70;99.90
13806;DHT22;6974;53.606;9.872;2023-02-28T07:19:02;2.70;99.90
13806;DHT22;6974;53.606;9.872;2023-02-28T07:21:30;2.80;99.90
13806;DHT22;6974;53.606;9.872;2023-02-28T07:23:58;2.90;99.90
13806;DHT22;6974;53.606;9.872;2023-02-28T07:26:25;2.90;99.90
13806;DHT22;6974;53.606;9.872;2023-02-28T07:28:52;3.00;99.90
13806;DHT22;6974;53.606;9.872;2023-02-28T07:31:19;3.10;99.90
13806;DHT22;6974;53.606;9.872;2023-02-28T07:33:48;3.10;99.90
13806;DHT22;6974;53.606;9.872;2023-02-28T07:36:16;3.20;99.90
13806;DHT22;6974;53.606;9.872;2023-02-28T07:38:46;3.20;99.90
13806;DHT22;6974;53.606;9.872;2023-02-28T07:41:15;3.30;99.90
13806;DHT22;6974;53.606;9.872;2023-02-28T07:43:43;3.40;99.90
13806;DHT22;6974;53.606;9.872;2023-02-28T07:46:12;3.50;99.90
13806;DHT22;6974;53.606;9.872;2023-02-28T07:48:40;3.60;99.90
13806;DHT22;6974;53.606;9.872;2023-02-28T07:51:09;3.70;99.90
13806;DHT22;6974;53.606;9.872;2023-02-28T07:53:36;3.80;99.90
13806;DHT22;6974;53.606;9.872;2023-02-28T07:56:04;3.90;99.90
13806;DHT22;6974;53.606;9.872;2023-02-28T07:58:32;3.90;99.90
13806;DHT22;6974;53.606;9.872;2023-02-28T08:01:05;3.90;99.90
13806;DHT22;6974;53.606;9.872;2023-02-28T08:03:32;4.00;99.90
13806;DHT22;6974;53.606;9.872;2023-02-28T08:06:00;4.10;99.90
13806;DHT22;6974;53.606;9.872;2023-02-28T08:08:29;4.10;99.90
13806;DHT22;6974;53.606;9.872;2023-02-28T08:10:58;4.20;99.90
13806;DHT22;6974;53.606;9.872;2023-02-28T08:13:27;4.20;99.90
13806;DHT22;6974;53.606;9.872;2023-02-28T08:15:55;4.30;99.90
13806;DHT22;6974;53.606;9.872;2023-02-28T08:18:23;4.40;99.90
13806;DHT22;6974;53.606;9.872;2023-02-28T08:20:50;4.50;99.90
13806;DHT22;6974;53.606;9.872;2023-02-28T08:23:18;4.50;99.90
13806;DHT22;6974;53.606;9.872;2023-02-28T08:25:53;4.60;99.90
13806;DHT22;6974;53.606;9.872;2023-02-28T08:28:21;4.70;99.90
13806;DHT22;6974;53.606;9.872;2023-02-28T08:30:48;4.70;99.90
13806;DHT22;6974;53.606;9.872;2023-02-28T08:33:15;4.80;99.90
13806;DHT22;6974;53.606;9.872;2023-02-28T08:35:42;4.90;99.90
13806;DHT22;6974;53.606;9.872;2023-02-28T08:38:10;4.90;99.90
13806;DHT22;6974;53.606;9.872;2023-02-28T08:40:37;5.00;99.90
13806;DHT22;6974;53.606;9.872;2023-02-28T08:43:05;5.00;99.90
13806;DHT22;6974;53.606;9.872;2023-02-28T08:45:32;5.10;99.90
13806;DHT22;6974;53.606;9.872;2023-02-28T08:47:59;5.10;99.90
13806;DHT22;6974;53.606;9.872;2023-02-28T08:50:27;5.10;99.90
13806;DHT22;6974;53.606;9.872;2023-02-28T08:52:54;5.20;99.90
13806;DHT22;6974;53.606;9.872;2023-02-28T08:55:21;5.30;99.90
13806;DHT22;6974;53.606;9.872;2023-02-28T08:57:48;5.30;99.90
13806;DHT22;6974;53.606;9.872;2023-02-28T09:00:18;5.40;99.90
13806;DHT22;6974;53.606;9.872;2023-02-28T09:02:45;5.40;99.90
13806;DHT22;6974;53.606;9.872;2023-02-28T09:05:12;5.50;99.90
13806;DHT22;6974;53.606;9.872;2023-02-28T09:07:40;5.50;99.90
13806;DHT22;6974;53.606;9.872;2023-02-28T09:10:08;5.50;99.90
13806;DHT22;6974;53.606;9.872;2023-02-28T09:12:35;5.60;99.90
13806;DHT22;6974;53.606;9.872;2023-02-28T09:15:03;5.60;99.90
13806;DHT22;6974;53.606;9.872;2023-02-28T09:17:33;5.70;99.90
13806;DHT22;6974;53.606;9.872;2023-02-28T09:20:00;5.70;99.90
13806;DHT22;6974;53.606;9.872;2023-02-28T09:22:27;5.80;99.90
13806;DHT22;6974;53.606;9.872;2023-02-28T09:24:54;5.90;99.90
13806;DHT22;6974;53.606;9.872;2023-02-28T09:27:21;6.00;99.90
13806;DHT22;6974;53.606;9.872;2023-02-28T09:29:48;6.10;99.90
13806;DHT22;6974;53.606;9.872;2023-02-28T09:32:15;6.10;99.90
13806;DHT22;6974;53.606;9.872;2023-02-28T09:34:44;6.20;99.90
13806;DHT22;6974;53.606;9.872;2023-02-28T09:37:12;6.20;99.90
13806;DHT22;6974;53.606;9.872;2023-02-28T09:39:39;6.30;99.90
13806;DHT22;6974;53.606;9.872;2023-02-28T09:42:14;6.40;99.90
13806;DHT22;6974;53.606;9.872;2023-02-28T09:44:47;6.60;99.90
13806;DHT22;6974;53.606;9.872;2023-02-28T09:47:27;6.70;99.90
13806;DHT22;6974;53.606;9.872;2023-02-28T09:49:58;6.70;99.90
13806;DHT22;6974;53.606;9.872;2023-02-28T09:52:30;6.90;99.90
13806;DHT22;6974;53.606;9.872;2023-02-28T09:55:20;7.10;99.90
13806;DHT22;6974;53.606;9.872;2023-02-28T09:57:50;7.20;99.90
13806;DHT22;6974;53.606;9.872;2023-02-28T10:00:19;7.50;99.90
13806;DHT22;6974;53.606;9.872;2023-02-28T10:05:53;8.00;99.90
13806;DHT22;6974;53.606;9.872;2023-02-28T10:08:25;8.20;99.90
13806;DHT22;6974;53.606;9.872;2023-02-28T10:10:55;8.50;99.90
13806;DHT22;6974;53.606;9.872;2023-02-28T10:13:26;8.70;99.90
13806;DHT22;6974;53.606;9.872;2023-02-28T10:15:58;8.90;99.90
13806;DHT22;6974;53.606;9.872;2023-02-28T10:18:41;9.00;99.90
13806;DHT22;6974;53.606;9.872;2023-02-28T10:21:19;9.20;99.90
13806;DHT22;6974;53.606;9.872;2023-02-28T10:23:48;9.40;99.90
13806;DHT22;6974;53.606;9.872;2023-02-28T10:26:17;9.50;99.90
13806;DHT22;6974;53.606;9.872;2023-02-28T10:28:45;9.70;99.90
13806;DHT22;6974;53.606;9.872;2023-02-28T10:31:14;9.80;99.90
13806;DHT22;6974;53.606;9.872;2023-02-28T10:33:43;9.80;99.90
13806;DHT22;6974;53.606;9.872;2023-02-28T10:36:16;9.80;99.90
13806;DHT22;6974;53.606;9.872;2023-02-28T10:38:45;9.70;99.90
13806;DHT22;6974;53.606;9.872;2023-02-28T10:41:15;9.70;99.90
13806;DHT22;6974;53.606;9.872;2023-02-28T10:43:44;9.70;99.90
13806;DHT22;6974;53.606;9.872;2023-02-28T10:46:15;9.60;99.90
13806;DHT22;6974;53.606;9.872;2023-02-28T10:49:01;9.60;99.90
13806;DHT22;6974;53.606;9.872;2023-02-28T10:51:37;9.50;99.90
13806;DHT22;6974;53.606;9.872;2023-02-28T10:54:05;9.50;99.90
13806;DHT22;6974;53.606;9.872;2023-02-28T10:56:32;9.50;99.90
13806;DHT22;6974;53.606;9.872;2023-02-28T10:59:01;9.50;99.90
13806;DHT22;6974;53.606;9.872;2023-02-28T11:01:38;9.50;99.90
13806;DHT22;6974;53.606;9.872;2023-02-28T11:04:17;9.50;99.90
13806;DHT22;6974;53.606;9.872;2023-02-28T11:06:47;9.50;99.90
13806;DHT22;6974;53.606;9.872;2023-02-28T11:09:20;9.50;99.90
13806;DHT22;6974;53.606;9.872;2023-02-28T11:11:50;9.60;99.90
13806;DHT22;6974;53.606;9.872;2023-02-28T11:14:21;9.70;99.90
13806;DHT22;6974;53.606;9.872;2023-02-28T11:16:50;9.70;99.90
13806;DHT22;6974;53.606;9.872;2023-02-28T11:19:19;9.70;99.90
13806;DHT22;6974;53.606;9.872;2023-02-28T11:21:54;9.80;99.90
13806;DHT22;6974;53.606;9.872;2023-02-28T11:24:25;9.80;99.90
13806;DHT22;6974;53.606;9.872;2023-02-28T11:26:53;9.80;99.90
13806;DHT22;6974;53.606;9.872;2023-02-28T11:29:22;9.80;99.90
13806;DHT22;6974;53.606;9.872;2023-02-28T11:32:13;9.80;99.90
13806;DHT22;6974;53.606;9.872;2023-02-28T11:34:43;9.90;99.90
13806;DHT22;6974;53.606;9.872;2023-02-28T11:37:14;9.90;99.90
13806;DHT22;6974;53.606;9.872;2023-02-28T11:39:42;10.00;99.90
13806;DHT22;6974;53.606;9.872;2023-02-28T11:42:28;10.10;99.90
13806;DHT22;6974;53.606;9.872;2023-02-28T11:45:13;10.20;99.90
13806;DHT22;6974;53.606;9.872;2023-02-28T11:47:48;10.30;99.90
13806;DHT22;6974;53.606;9.872;2023-02-28T11:50:24;10.30;99.90
13806;DHT22;6974;53.606;9.872;2023-02-28T11:52:57;10.30;99.90
13806;DHT22;6974;53.606;9.872;2023-02-28T11:55:30;10.20;99.90
13806;DHT22;6974;53.606;9.872;2023-02-28T11:58:19;10.20;99.90
13806;DHT22;6974;53.606;9.872;2023-02-28T12:01:01;10.30;99.90
13806;DHT22;6974;53.606;9.872;2023-02-28T12:03:37;10.20;99.90
13806;DHT22;6974;53.606;9.872;2023-02-28T12:06:16;10.10;99.90
13806;DHT22;6974;53.606;9.872;2023-02-28T12:08:59;10.10;99.90
13806;DHT22;6974;53.606;9.872;2023-02-28T12:11:44;10.10;99.90
13806;DHT22;6974;53.606;9.872;2023-02-28T12:14:46;10.10;99.90
13806;DHT22;6974;53.606;9.872;2023-02-28T12:17:25;10.10;99.90
13806;DHT22;6974;53.606;9.872;2023-02-28T12:20:05;10.00;99.90
13806;DHT22;6974;53.606;9.872;2023-02-28T12:22:43;10.00;99.90
13806;DHT22;6974;53.606;9.872;2023-02-28T12:25:32;9.90;99.90
13806;DHT22;6974;53.606;9.872;2023-02-28T12:28:08;9.90;99.90
13806;DHT22;6974;53.606;9.872;2023-02-28T12:30:48;9.90;99.90
13806;DHT22;6974;53.606;9.872;2023-02-28T12:33:18;9.90;99.90
13806;DHT22;6974;53.606;9.872;2023-02-28T12:35:49;9.90;99.90
13806;DHT22;6974;53.606;9.872;2023-02-28T12:38:20;9.90;99.90
13806;DHT22;6974;53.606;9.872;2023-02-28T12:40:53;9.90;99.90
13806;DHT22;6974;53.606;9.872;2023-02-28T12:43:24;9.90;99.90
13806;DHT22;6974;53.606;9.872;2023-02-28T12:45:59;9.90;99.90
13806;DHT22;6974;53.606;9.872;2023-02-28T12:48:33;9.90;99.90
13806;DHT22;6974;53.606;9.872;2023-02-28T12:51:03;10.00;99.90
13806;DHT22;6974;53.606;9.872;2023-02-28T12:53:35;10.00;99.90
13806;DHT22;6974;53.606;9.872;2023-02-28T12:56:15;10.00;99.90
13806;DHT22;6974;53.606;9.872;2023-02-28T12:58:46;10.00;99.90
13806;DHT22;6974;53.606;9.872;2023-02-28T13:01:36;10.00;99.90
13806;DHT22;6974;53.606;9.872;2023-02-28T13:10:05;10.20;99.90
13806;DHT22;6974;53.606;9.872;2023-02-28T13:12:34;10.20;99.90
13806;DHT22;6974;53.606;9.872;2023-02-28T13:15:15;10.20;99.90
13806;DHT22;6974;53.606;9.872;2023-02-28T13:17:48;10.20;99.90
13806;DHT22;6974;53.606;9.872;2023-02-28T13:20:18;10.20;99.90
13806;DHT22;6974;53.606;9.872;2023-02-28T13:22:46;10.10;99.90
13806;DHT22;6974;53.606;9.872;2023-02-28T13:31:20;10.10;99.90
13806;DHT22;6974;53.606;9.872;2023-02-28T13:34:12;10.10;99.90
13806;DHT22;6974;53.606;9.872;2023-02-28T13:36:39;10.10;99.90
13806;DHT22;6974;53.606;9.872;2023-02-28T13:42:30;10.00;99.90
13806;DHT22;6974;53.606;9.872;2023-02-28T13:45:21;9.90;99.90
13806;DHT22;6974;53.606;9.872;2023-02-28T13:47:54;9.90;99.90
13806;DHT22;6974;53.606;9.872;2023-02-28T13:50:26;10.00;99.90
13806;DHT22;6974;53.606;9.872;2023-02-28T13:55:48;10.10;99.90
13806;DHT22;6974;53.606;9.872;2023-02-28T13:58:33;10.10;99.90
13806;DHT22;6974;53.606;9.872;2023-02-28T14:01:26;10.10;99.90
13806;DHT22;6974;53.606;9.872;2023-02-28T14:04:25;10.10;99.90
13806;DHT22;6974;53.606;9.872;2023-02-28T14:06:57;10.10;99.90
13806;DHT22;6974;53.606;9.872;2023-02-28T14:09:27;10.20;99.90
13806;DHT22;6974;53.606;9.872;2023-02-28T14:11:55;10.20;99.90
13806;DHT22;6974;53.606;9.872;2023-02-28T14:14:53;10.30;99.90
13806;DHT22;6974;53.606;9.872;2023-02-28T14:17:21;10.20;99.90
13806;DHT22;6974;53.606;9.872;2023-02-28T14:19:50;10.10;99.90
13806;DHT22;6974;53.606;9.872;2023-02-28T14:22:35;10.00;99.90
13806;DHT22;6974;53.606;9.872;2023-02-28T14:25:10;10.00;99.90
13806;DHT22;6974;53.606;9.872;2023-02-28T14:27:47;10.10;99.90
13806;DHT22;6974;53.606;9.872;2023-02-28T14:30:36;10.00;99.90
13806;DHT22;6974;53.606;9.872;2023-02-28T14:33:31;10.10;99.90
13806;DHT22;6974;53.606;9.872;2023-02-28T14:36:10;10.20;99.90
13806;DHT22;6974;53.606;9.872;2023-02-28T14:38:43;10.10;99.90
13806;DHT22;6974;53.606;9.872;2023-02-28T14:41:19;10.20;99.90
13806;DHT22;6974;53.606;9.872;2023-02-28T14:43:52;10.10;99.90
13806;DHT22;6974;53.606;9.872;2023-02-28T14:46:20;10.20;99.90
13806;DHT22;6974;53.606;9.872;2023-02-28T14:48:48;10.00;99.90
13806;DHT22;6974;53.606;9.872;2023-02-28T14:51:20;10.00;99.90
13806;DHT22;6974;53.606;9.872;2023-02-28T14:53:50;10.00;99.90
13806;DHT22;6974;53.606;9.872;2023-02-28T14:56:22;10.10;99.90
13806;DHT22;6974;53.606;9.872;2023-02-28T14:58:53;10.10;99.90
13806;DHT22;6974;53.606;9.872;2023-02-28T15:01:22;10.00;99.90
13806;DHT22;6974;53.606;9.872;2023-02-28T15:03:57;9.90;99.90
13806;DHT22;6974;53.606;9.872;2023-02-28T15:06:26;9.90;99.90
13806;DHT22;6974;53.606;9.872;2023-02-28T15:09:08;9.90;99.90
13806;DHT22;6974;53.606;9.872;2023-02-28T15:11:35;9.90;99.90
13806;DHT22;6974;53.606;9.872;2023-02-28T15:14:03;9.90;99.90
13806;DHT22;6974;53.606;9.872;2023-02-28T15:16:33;9.90;99.90
13806;DHT22;6974;53.606;9.872;2023-02-28T15:19:03;9.80;99.90
13806;DHT22;6974;53.606;9.872;2023-02-28T15:21:35;9.80;99.90
13806;DHT22;6974;53.606;9.872;2023-02-28T15:24:04;9.80;99.90
13806;DHT22;6974;53.606;9.872;2023-02-28T15:26:34;9.80;99.90
13806;DHT22;6974;53.606;9.872;2023-02-28T15:29:05;9.90;99.90
13806;DHT22;6974;53.606;9.872;2023-02-28T15:31:34;9.80;99.90
13806;DHT22;6974;53.606;9.872;2023-02-28T15:34:03;9.70;99.90
13806;DHT22;6974;53.606;9.872;2023-02-28T15:36:33;9.70;99.90
13806;DHT22;6974;53.606;9.872;2023-02-28T15:39:03;9.60;99.90
13806;DHT22;6974;53.606;9.872;2023-02-28T15:41:44;9.50;99.90
13806;DHT22;6974;53.606;9.872;2023-02-28T15:44:25;9.50;99.90
13806;DHT22;6974;53.606;9.872;2023-02-28T15:46:58;9.50;99.90
13806;DHT22;6974;53.606;9.872;2023-02-28T15:49:28;9.50;99.90
13806;DHT22;6974;53.606;9.872;2023-02-28T15:51:59;9.50;99.90
13806;DHT22;6974;53.606;9.872;2023-02-28T15:54:29;9.50;99.90
13806;DHT22;6974;53.606;9.872;2023-02-28T15:56:58;9.50;99.90
13806;DHT22;6974;53.606;9.872;2023-02-28T15:59:29;9.50;99.90
13806;DHT22;6974;53.606;9.872;2023-02-28T16:02:15;9.40;99.90
13806;DHT22;6974;53.606;9.872;2023-02-28T16:05:02;9.50;99.90
13806;DHT22;6974;53.606;9.872;2023-02-28T16:07:42;9.50;99.90
13806;DHT22;6974;53.606;9.872;2023-02-28T16:10:11;9.40;99.90
13806;DHT22;6974;53.606;9.872;2023-02-28T16:12:40;9.30;99.90
13806;DHT22;6974;53.606;9.872;2023-02-28T16:15:15;9.30;99.90
13806;DHT22;6974;53.606;9.872;2023-02-28T16:17:43;9.20;99.90
13806;DHT22;6974;53.606;9.872;2023-02-28T16:20:13;9.20;99.90
13806;DHT22;6974;53.606;9.872;2023-02-28T16:22:41;9.20;99.90
13806;DHT22;6974;53.606;9.872;2023-02-28T16:25:11;9.10;99.90
13806;DHT22;6974;53.606;9.872;2023-02-28T16:27:38;9.10;99.90
13806;DHT22;6974;53.606;9.872;2023-02-28T16:30:07;9.00;99.90
13806;DHT22;6974;53.606;9.872;2023-02-28T16:32:36;8.90;99.90
13806;DHT22;6974;53.606;9.872;2023-02-28T16:35:05;8.80;99.90
13806;DHT22;6974;53.606;9.872;2023-02-28T16:37:32;8.70;99.90
13806;DHT22;6974;53.606;9.872;2023-02-28T16:40:00;8.60;99.90
13806;DHT22;6974;53.606;9.872;2023-02-28T16:42:28;8.60;99.90
13806;DHT22;6974;53.606;9.872;2023-02-28T16:44:55;8.50;99.90
13806;DHT22;6974;53.606;9.872;2023-02-28T16:47:23;8.50;99.90